Time;durP1;ratioP1;P1;durP2;ratioP2;P2;SDS_P1;SDS_P2;PMS_P1;PMS_P2;Temp;Humidity;BMP_temperature;BMP_pressure;BME280_temperature;BME280_humidity;BME280_pressure;Samples;Min_cycle;Max_cycle;Signal;HPM_P1;HPM_P2
2024/01/16 00:02:10;;;;;;;68.37;33.03;;;;;;;;;;4412531;32;318155;-81
2024/01/16 00:04:37;;;;;;;57.60;31.47;;;;;;;;;;4401595;32;318248;-80
2024/01/16 00:07:05;;;;;;;56.23;31.57;;;;;;;;;;4412871;32;318188;-80
2024/01/16 00:09:34;;;;;;;64.07;33.30;;;;;;;;;;4387844;32;317739;-80
2024/01/16 00:12:03;;;;;;;70.07;34.73;;;;;;;;;;4400702;32;317355;-80
2024/01/16 00:14:30;;;;;;;63.77;35.70;;;;;;;;;;4364930;32;316878;-80
2024/01/16 00:16:58;;;;;;;66.17;34.67;;;;;;;;;;4398654;32;318244;-80
2024/01/16 00:19:29;;;;;;;49.93;30.23;;;;;;;;;;4403100;32;318081;-80
2024/01/16 00:21:56;;;;;;;62.23;32.17;;;;;;;;;;4411026;32;318045;-80
2024/01/16 00:24:24;;;;;;;77.67;38.97;;;;;;;;;;4403743;32;317599;-80
2024/01/16 00:26:53;;;;;;;70.87;38.27;;;;;;;;;;4422422;32;317914;-81
2024/01/16 00:29:27;;;;;;;61.77;32.63;;;;;;;;;;4425277;32;317665;-80
2024/01/16 00:31:53;;;;;;;48.97;28.70;;;;;;;;;;4410164;32;417694;-80
2024/01/16 00:34:20;;;;;;;52.03;29.80;;;;;;;;;;4412705;32;317334;-81
2024/01/16 00:36:47;;;;;;;52.67;30.97;;;;;;;;;;4399189;32;418876;-81
2024/01/16 00:39:14;;;;;;;56.93;33.33;;;;;;;;;;4409520;32;317228;-81
2024/01/16 00:41:41;;;;;;;68.00;35.47;;;;;;;;;;4378128;32;317550;-81
2024/01/16 00:44:08;;;;;;;62.07;35.90;;;;;;;;;;4397849;32;335412;-81
2024/01/16 00:46:37;;;;;;;60.73;34.03;;;;;;;;;;4385455;32;317635;-81
2024/01/16 00:49:07;;;;;;;55.13;31.60;;;;;;;;;;4412195;32;318635;-82
2024/01/16 00:51:35;;;;;;;50.73;27.17;;;;;;;;;;4395340;32;318216;-81
2024/01/16 00:54:03;;;;;;;44.03;23.97;;;;;;;;;;4407671;32;318328;-81
2024/01/16 00:56:34;;;;;;;50.03;27.83;;;;;;;;;;4401565;32;317552;-80
2024/01/16 00:59:03;;;;;;;46.93;26.57;;;;;;;;;;4410946;32;344451;-81
2024/01/16 01:01:31;;;;;;;50.50;28.13;;;;;;;;;;4388287;32;318064;-80
2024/01/16 01:03:59;;;;;;;61.13;30.60;;;;;;;;;;4410217;32;318048;-80
2024/01/16 01:06:27;;;;;;;55.77;28.73;;;;;;;;;;4392879;32;316884;-79
2024/01/16 01:08:55;;;;;;;41.83;24.43;;;;;;;;;;4413015;32;316923;-79
2024/01/16 01:11:22;;;;;;;41.83;23.07;;;;;;;;;;4413927;32;317209;-79
2024/01/16 01:13:49;;;;;;;33.77;19.93;;;;;;;;;;4401046;32;316038;-79
2024/01/16 01:16:18;;;;;;;33.57;20.40;;;;;;;;;;4417081;32;317681;-80
2024/01/16 01:18:46;;;;;;;33.63;18.87;;;;;;;;;;4401139;32;318413;-80
2024/01/16 01:21:14;;;;;;;29.80;18.23;;;;;;;;;;4390464;32;358566;-79
2024/01/16 01:23:43;;;;;;;34.80;19.53;;;;;;;;;;4378502;32;318311;-80
2024/01/16 01:26:13;;;;;;;29.57;17.00;;;;;;;;;;4409920;32;318221;-80
2024/01/16 01:28:45;;;;;;;26.57;14.70;;;;;;;;;;4400361;32;318341;-80
2024/01/16 01:31:14;;;;;;;25.13;14.37;;;;;;;;;;4382764;32;345330;-81
2024/01/16 01:33:44;;;;;;;21.13;14.67;;;;;;;;;;4375265;32;318143;-80
2024/01/16 01:36:16;;;;;;;22.80;13.40;;;;;;;;;;4411769;32;318978;-80
2024/01/16 01:38:42;;;;;;;23.53;13.17;;;;;;;;;;4377757;32;318144;-80
2024/01/16 01:41:11;;;;;;;24.60;14.20;;;;;;;;;;4401675;32;317472;-80
2024/01/16 01:43:39;;;;;;;21.57;14.57;;;;;;;;;;4396273;32;318188;-79
2024/01/16 01:46:14;;;;;;;25.33;14.37;;;;;;;;;;4386677;32;316699;-80
2024/01/16 01:48:43;;;;;;;24.90;16.40;;;;;;;;;;4374371;32;317388;-82
2024/01/16 01:51:15;;;;;;;38.80;21.90;;;;;;;;;;4399671;32;317676;-80
2024/01/16 01:53:46;;;;;;;38.13;21.27;;;;;;;;;;4373677;32;355384;-80
2024/01/16 01:56:16;;;;;;;48.30;27.03;;;;;;;;;;4382592;32;317531;-80
2024/01/16 01:58:47;;;;;;;29.80;18.97;;;;;;;;;;4388888;32;317381;-80
2024/01/16 02:01:17;;;;;;;34.40;21.30;;;;;;;;;;4379286;32;322769;-80
2024/01/16 02:03:46;;;;;;;39.13;23.80;;;;;;;;;;4381962;32;317347;-80
2024/01/16 02:06:16;;;;;;;40.40;23.87;;;;;;;;;;4400482;32;317531;-80
2024/01/16 02:08:45;;;;;;;36.57;20.90;;;;;;;;;;4400584;32;318324;-80
2024/01/16 02:11:13;;;;;;;35.30;20.63;;;;;;;;;;4397509;32;317562;-80
2024/01/16 02:13:42;;;;;;;28.37;17.33;;;;;;;;;;4379256;32;318388;-80
2024/01/16 02:18:34;;;;;;;34.40;20.33;;;;;;;;;;4340824;32;318106;-80
2024/01/16 02:21:06;;;;;;;37.50;18.53;;;;;;;;;;4351973;32;318214;-80
2024/01/16 02:23:36;;;;;;;34.63;20.67;;;;;;;;;;4315892;32;318347;-80
2024/01/16 02:26:04;;;;;;;46.13;22.67;;;;;;;;;;4341268;32;318283;-80
2024/01/16 02:28:31;;;;;;;37.87;23.03;;;;;;;;;;4315917;32;317938;-82
2024/01/16 02:30:58;;;;;;;35.30;20.50;;;;;;;;;;4330722;32;318394;-80
2024/01/16 02:33:24;;;;;;;41.83;24.60;;;;;;;;;;4304667;32;316400;-81
2024/01/16 02:35:51;;;;;;;41.23;24.00;;;;;;;;;;4304718;32;316449;-81
2024/01/16 02:38:18;;;;;;;43.57;25.87;;;;;;;;;;4317622;32;316986;-81
2024/01/16 02:40:49;;;;;;;32.87;23.60;;;;;;;;;;4318885;32;318329;-81
2024/01/16 02:43:16;;;;;;;43.83;25.13;;;;;;;;;;4346681;32;318213;-81
2024/01/16 02:45:44;;;;;;;51.43;27.57;;;;;;;;;;4305743;32;321310;-81
2024/01/16 02:48:11;;;;;;;61.77;33.43;;;;;;;;;;4349638;32;316613;-81
2024/01/16 02:50:38;;;;;;;99.67;46.87;;;;;;;;;;4339879;32;317583;-81
2024/01/16 02:53:06;;;;;;;56.17;30.77;;;;;;;;;;4348896;32;341718;-81
2024/01/16 02:55:35;;;;;;;51.03;26.87;;;;;;;;;;4337413;32;350493;-81
2024/01/16 02:58:05;;;;;;;50.37;26.90;;;;;;;;;;4360000;32;316801;-81
2024/01/16 03:00:33;;;;;;;52.57;25.83;;;;;;;;;;4344802;32;345718;-81
2024/01/16 03:03:00;;;;;;;42.73;23.33;;;;;;;;;;4362634;32;317011;-79
2024/01/16 03:05:31;;;;;;;48.33;25.50;;;;;;;;;;4348076;32;322263;-80
2024/01/16 03:07:58;;;;;;;42.13;23.27;;;;;;;;;;4343135;32;316839;-79
2024/01/16 03:10:25;;;;;;;38.17;21.60;;;;;;;;;;4348762;32;316814;-79
2024/01/16 03:12:53;;;;;;;40.30;21.10;;;;;;;;;;4362915;32;316413;-79
2024/01/16 03:15:23;;;;;;;44.47;22.73;;;;;;;;;;4365476;32;315330;-79
2024/01/16 03:17:50;;;;;;;30.83;18.73;;;;;;;;;;4342195;32;417405;-79
2024/01/16 03:20:18;;;;;;;30.43;19.37;;;;;;;;;;4362992;32;330148;-79
2024/01/16 03:22:45;;;;;;;36.37;18.53;;;;;;;;;;4352866;32;317273;-79
2024/01/16 03:25:12;;;;;;;35.03;20.60;;;;;;;;;;4362478;32;316921;-80
2024/01/16 03:27:42;;;;;;;32.33;20.40;;;;;;;;;;4331369;32;338381;-79
2024/01/16 03:30:10;;;;;;;40.57;23.17;;;;;;;;;;4346463;32;316144;-79
2024/01/16 03:32:40;;;;;;;32.63;19.60;;;;;;;;;;4340515;32;316818;-79
2024/01/16 03:35:08;;;;;;;39.50;21.87;;;;;;;;;;4349357;32;316719;-79
2024/01/16 03:37:35;;;;;;;32.70;20.37;;;;;;;;;;4327555;32;316375;-80
2024/01/16 03:40:04;;;;;;;31.93;21.73;;;;;;;;;;4348694;32;316681;-80
2024/01/16 03:42:31;;;;;;;36.90;22.87;;;;;;;;;;4338746;32;346957;-80
2024/01/16 03:44:59;;;;;;;39.13;21.17;;;;;;;;;;4349265;32;316791;-80
2024/01/16 03:47:27;;;;;;;33.10;19.50;;;;;;;;;;4340022;32;316268;-80
2024/01/16 03:49:59;;;;;;;38.70;21.73;;;;;;;;;;4344302;32;316607;-80
2024/01/16 03:52:28;;;;;;;41.93;22.33;;;;;;;;;;4339230;32;317137;-80
2024/01/16 03:54:54;;;;;;;38.27;23.93;;;;;;;;;;4363376;32;316142;-80
2024/01/16 03:57:21;;;;;;;41.97;25.20;;;;;;;;;;4363429;32;316426;-80
2024/01/16 03:59:49;;;;;;;39.93;23.07;;;;;;;;;;4345019;32;417662;-79
2024/01/16 04:02:16;;;;;;;43.17;23.93;;;;;;;;;;4363634;32;316761;-80
2024/01/16 04:04:44;;;;;;;36.13;23.30;;;;;;;;;;4350246;32;317245;-80
2024/01/16 04:09:54;;;;;;;48.50;26.53;;;;;;;;;;4332708;32;389415;-81
2024/01/16 04:12:21;;;;;;;42.53;20.80;;;;;;;;;;4341724;32;317930;-81
2024/01/16 04:14:48;;;;;;;40.50;22.40;;;;;;;;;;4323569;32;419017;-81
2024/01/16 04:17:15;;;;;;;46.60;23.57;;;;;;;;;;4334884;33;318607;-81
2024/01/16 04:19:43;;;;;;;36.40;22.30;;;;;;;;;;4317665;33;318313;-80
2024/01/16 04:22:10;;;;;;;58.20;29.43;;;;;;;;;;4334330;33;356515;-80
2024/01/16 04:24:38;;;;;;;49.50;27.50;;;;;;;;;;4327068;33;318144;-81
2024/01/16 04:27:05;;;;;;;50.93;25.73;;;;;;;;;;4335919;32;317367;-81
2024/01/16 04:32:14;;;;;;;50.50;27.17;;;;;;;;;;4336279;33;318379;-80
2024/01/16 04:34:43;;;;;;;41.27;24.63;;;;;;;;;;4325727;32;318100;-81
2024/01/16 04:37:12;;;;;;;44.03;25.30;;;;;;;;;;4334022;33;318455;-79
2024/01/16 04:39:46;;;;;;;40.93;21.87;;;;;;;;;;4315618;32;353453;-80
2024/01/16 04:42:14;;;;;;;36.00;22.17;;;;;;;;;;4334192;32;318421;-79
2024/01/16 04:44:43;;;;;;;42.03;23.80;;;;;;;;;;4337080;32;318150;-80
2024/01/16 04:47:10;;;;;;;35.07;22.37;;;;;;;;;;4346586;32;318085;-79
2024/01/16 04:49:37;;;;;;;30.83;22.33;;;;;;;;;;4333351;32;317153;-82
2024/01/16 04:52:06;;;;;;;41.30;24.07;;;;;;;;;;4349842;32;318783;-79
2024/01/16 04:54:32;;;;;;;37.70;23.70;;;;;;;;;;4339734;32;318665;-81
2024/01/16 04:57:02;;;;;;;42.67;25.77;;;;;;;;;;4346550;32;318793;-82
2024/01/16 04:59:32;;;;;;;38.60;24.10;;;;;;;;;;4336195;32;358283;-80
2024/01/16 05:01:59;;;;;;;48.50;29.53;;;;;;;;;;4349154;32;318290;-80
2024/01/16 05:04:25;;;;;;;66.37;36.23;;;;;;;;;;4340461;32;318253;-80
2024/01/16 05:06:54;;;;;;;77.13;47.50;;;;;;;;;;4348026;32;317928;-80
2024/01/16 05:09:23;;;;;;;85.20;48.93;;;;;;;;;;4352003;32;318302;-80
2024/01/16 05:11:51;;;;;;;58.80;37.87;;;;;;;;;;4388697;32;417479;-80
2024/01/16 05:14:24;;;;;;;45.37;27.30;;;;;;;;;;4414108;32;316912;-81
2024/01/16 05:16:52;;;;;;;24.10;15.47;;;;;;;;;;4402916;32;418516;-81
2024/01/16 05:19:19;;;;;;;16.30;10.97;;;;;;;;;;4415174;32;318027;-80
2024/01/16 05:21:45;;;;;;;11.97;8.20;;;;;;;;;;4389470;32;317704;-81
2024/01/16 05:24:14;;;;;;;10.97;8.23;;;;;;;;;;4353541;32;317276;-81
2024/01/16 05:26:41;;;;;;;9.30;5.33;;;;;;;;;;4341438;32;317400;-80
2024/01/16 05:29:08;;;;;;;5.17;4.47;;;;;;;;;;4353319;32;315847;-81
2024/01/16 05:31:44;;;;;;;6.50;4.97;;;;;;;;;;4330584;32;316643;-81
2024/01/16 05:34:11;;;;;;;12.77;10.93;;;;;;;;;;4350443;32;342875;-81
2024/01/16 05:36:38;;;;;;;14.23;9.93;;;;;;;;;;4341584;32;332559;-81
2024/01/16 05:39:05;;;;;;;11.17;7.90;;;;;;;;;;4353199;32;316785;-80
2024/01/16 05:41:34;;;;;;;9.87;7.20;;;;;;;;;;4336194;32;317280;-81
2024/01/16 05:44:03;;;;;;;10.63;6.27;;;;;;;;;;4354118;32;321863;-81
2024/01/16 05:46:30;;;;;;;12.63;9.07;;;;;;;;;;4327729;32;317381;-80
2024/01/16 05:48:58;;;;;;;9.73;5.40;;;;;;;;;;4346800;32;317172;-81
2024/01/16 05:51:25;;;;;;;10.53;6.27;;;;;;;;;;4342464;32;315893;-81
2024/01/16 05:53:54;;;;;;;10.87;5.30;;;;;;;;;;4343946;32;317132;-80
2024/01/16 05:56:23;;;;;;;10.53;5.83;;;;;;;;;;4352252;32;317540;-81
2024/01/16 05:58:51;;;;;;;18.60;9.43;;;;;;;;;;4342556;32;418261;-80
2024/01/16 06:01:18;;;;;;;14.27;8.97;;;;;;;;;;4361546;32;315952;-79
2024/01/16 06:03:48;;;;;;;17.63;9.77;;;;;;;;;;4346801;32;316214;-79
2024/01/16 06:06:16;;;;;;;13.80;9.70;;;;;;;;;;4358782;32;339178;-80
2024/01/16 06:08:43;;;;;;;10.37;6.67;;;;;;;;;;4329818;32;317154;-80
2024/01/16 06:11:13;;;;;;;11.53;6.60;;;;;;;;;;4349247;32;317423;-80
2024/01/16 06:13:44;;;;;;;7.03;5.00;;;;;;;;;;4397701;32;317126;-82
2024/01/16 06:16:13;;;;;;;5.87;4.00;;;;;;;;;;4413936;32;317033;-82
2024/01/16 06:18:40;;;;;;;10.57;5.20;;;;;;;;;;4403055;32;316394;-80
2024/01/16 06:21:11;;;;;;;14.97;8.30;;;;;;;;;;4412720;32;316967;-81
2024/01/16 06:23:42;;;;;;;16.73;8.13;;;;;;;;;;4396869;32;358275;-81
2024/01/16 06:26:09;;;;;;;17.83;8.70;;;;;;;;;;4414271;32;317218;-81
2024/01/16 06:28:38;;;;;;;15.83;8.20;;;;;;;;;;4402910;32;317737;-81
2024/01/16 06:31:07;;;;;;;8.53;4.53;;;;;;;;;;4415375;32;317107;-82
2024/01/16 06:33:35;;;;;;;5.83;3.33;;;;;;;;;;4388769;32;344647;-80
2024/01/16 06:36:04;;;;;;;4.70;4.23;;;;;;;;;;4414543;32;331324;-80
2024/01/16 06:38:31;;;;;;;4.30;3.53;;;;;;;;;;4404964;32;316297;-80
2024/01/16 06:41:04;;;;;;;5.23;4.03;;;;;;;;;;4413534;32;316043;-81
2024/01/16 06:43:32;;;;;;;11.60;3.83;;;;;;;;;;4413262;32;314610;-83
2024/01/16 06:45:59;;;;;;;7.43;4.87;;;;;;;;;;4429814;32;316935;-80
2024/01/16 06:48:26;;;;;;;5.30;3.93;;;;;;;;;;4418080;32;314741;-80
2024/01/16 06:50:54;;;;;;;5.10;4.20;;;;;;;;;;4418144;32;314345;-82
2024/01/16 06:53:22;;;;;;;35.67;15.93;;;;;;;;;;4412464;32;316595;-81
2024/01/16 06:55:49;;;;;;;25.60;14.07;;;;;;;;;;4371818;32;417502;-82
2024/01/16 06:58:17;;;;;;;12.87;8.27;;;;;;;;;;4409105;32;318005;-81
2024/01/16 07:00:46;;;;;;;23.10;9.97;;;;;;;;;;4399400;32;317470;-82
2024/01/16 07:03:13;;;;;;;16.93;13.00;;;;;;;;;;4410212;32;325418;-81
2024/01/16 07:05:43;;;;;;;32.10;23.20;;;;;;;;;;4391616;32;318230;-81
2024/01/16 07:08:10;;;;;;;22.80;13.33;;;;;;;;;;4407093;32;318505;-82
2024/01/16 07:10:38;;;;;;;16.53;10.60;;;;;;;;;;4398959;32;318371;-81
2024/01/16 07:13:07;;;;;;;21.90;16.20;;;;;;;;;;4410408;32;318152;-81
2024/01/16 07:15:35;;;;;;;15.43;9.70;;;;;;;;;;4396791;32;318134;-82
2024/01/16 07:18:03;;;;;;;11.43;7.10;;;;;;;;;;4409585;32;317138;-82
2024/01/16 07:20:33;;;;;;;8.10;5.47;;;;;;;;;;4401596;32;345716;-83
2024/01/16 07:23:07;;;;;;;7.90;6.10;;;;;;;;;;4413670;32;316089;-83
2024/01/16 07:25:37;;;;;;;9.30;3.80;;;;;;;;;;4376694;32;315936;-82
2024/01/16 07:28:04;;;;;;;5.40;4.60;;;;;;;;;;4393587;32;316406;-83
2024/01/16 07:30:38;;;;;;;6.53;3.93;;;;;;;;;;4413303;32;329327;-83
2024/01/16 07:33:05;;;;;;;4.13;3.73;;;;;;;;;;4401877;32;315430;-80
2024/01/16 07:35:32;;;;;;;5.70;4.10;;;;;;;;;;4412653;32;316329;-80
2024/01/16 07:38:00;;;;;;;8.37;6.17;;;;;;;;;;4399548;32;316586;-81
2024/01/16 07:40:27;;;;;;;12.53;7.97;;;;;;;;;;4413162;32;316274;-81
2024/01/16 07:42:55;;;;;;;10.53;6.97;;;;;;;;;;4405304;32;316960;-80
2024/01/16 07:45:23;;;;;;;10.90;7.50;;;;;;;;;;4415377;32;316861;-80
2024/01/16 07:47:51;;;;;;;12.33;5.70;;;;;;;;;;4404525;32;341937;-80
2024/01/16 07:50:18;;;;;;;10.63;6.03;;;;;;;;;;4407136;32;317177;-80
2024/01/16 07:52:45;;;;;;;11.87;6.40;;;;;;;;;;4362955;32;316511;-80
2024/01/16 07:55:13;;;;;;;6.27;3.43;;;;;;;;;;4367244;32;316917;-80
2024/01/16 07:57:41;;;;;;;12.10;8.07;;;;;;;;;;4364338;32;324605;-79
2024/01/16 08:00:11;;;;;;;5.63;4.10;;;;;;;;;;4346457;32;316496;-79
2024/01/16 08:02:38;;;;;;;7.77;5.43;;;;;;;;;;4363159;32;316014;-79
2024/01/16 08:05:07;;;;;;;13.40;8.93;;;;;;;;;;4338932;32;316201;-80
2024/01/16 08:07:35;;;;;;;18.33;10.37;;;;;;;;;;4362685;32;316276;-79
2024/01/16 08:10:03;;;;;;;10.87;7.23;;;;;;;;;;4348960;32;318164;-79
2024/01/16 08:12:30;;;;;;;5.93;4.80;;;;;;;;;;4364921;32;317895;-81
2024/01/16 08:14:58;;;;;;;4.03;3.07;;;;;;;;;;4355839;32;316644;-80
2024/01/16 08:17:26;;;;;;;3.93;3.43;;;;;;;;;;4364527;32;316213;-80
2024/01/16 08:19:55;;;;;;;4.20;3.10;;;;;;;;;;4349318;32;316182;-79
2024/01/16 08:22:23;;;;;;;4.33;3.40;;;;;;;;;;4360125;32;315247;-79
2024/01/16 08:24:51;;;;;;;3.87;2.70;;;;;;;;;;4352313;32;315780;-80
2024/01/16 08:27:19;;;;;;;3.93;3.53;;;;;;;;;;4401257;32;316234;-79
2024/01/16 08:29:47;;;;;;;7.07;4.57;;;;;;;;;;4398458;32;316308;-81
2024/01/16 08:32:14;;;;;;;8.03;5.37;;;;;;;;;;4399791;32;349348;-81
2024/01/16 08:34:42;;;;;;;8.37;5.73;;;;;;;;;;4410980;32;316254;-80
2024/01/16 08:37:09;;;;;;;18.50;10.90;;;;;;;;;;4389949;32;316027;-81
2024/01/16 08:39:38;;;;;;;16.50;9.07;;;;;;;;;;4411816;32;317374;-79
2024/01/16 08:42:07;;;;;;;17.20;10.73;;;;;;;;;;4392814;32;316416;-81
2024/01/16 08:44:36;;;;;;;14.73;8.30;;;;;;;;;;4410436;32;317896;-79
2024/01/16 08:47:04;;;;;;;22.10;13.20;;;;;;;;;;4390158;32;316092;-82
2024/01/16 08:49:33;;;;;;;13.20;8.00;;;;;;;;;;4412242;32;318563;-81
2024/01/16 08:52:02;;;;;;;11.00;7.33;;;;;;;;;;4393484;32;332808;-81
2024/01/16 08:54:33;;;;;;;14.17;9.50;;;;;;;;;;4399458;32;317209;-83
2024/01/16 08:57:02;;;;;;;26.20;14.40;;;;;;;;;;4384834;32;316241;-82
2024/01/16 08:59:29;;;;;;;33.03;20.47;;;;;;;;;;4397565;32;317825;-80
2024/01/16 09:02:01;;;;;;;24.60;12.87;;;;;;;;;;4399554;32;318131;-81
2024/01/16 09:04:32;;;;;;;48.67;23.70;;;;;;;;;;4394540;32;316596;-82
2024/01/16 09:07:00;;;;;;;42.90;21.07;;;;;;;;;;4381534;32;318364;-80
2024/01/16 09:09:27;;;;;;;26.20;11.73;;;;;;;;;;4427844;32;317627;-82
2024/01/16 09:11:57;;;;;;;30.23;11.50;;;;;;;;;;4398263;32;317622;-81
2024/01/16 09:14:25;;;;;;;48.23;24.07;;;;;;;;;;4361699;32;316571;-82
2024/01/16 09:16:54;;;;;;;24.67;16.77;;;;;;;;;;4353280;32;318244;-82
2024/01/16 09:19:21;;;;;;;16.03;8.90;;;;;;;;;;4362734;32;317968;-82
2024/01/16 09:21:48;;;;;;;17.77;11.10;;;;;;;;;;4350224;32;316531;-82
2024/01/16 09:24:16;;;;;;;45.60;26.27;;;;;;;;;;4349229;32;335085;-82
2024/01/16 09:26:44;;;;;;;15.03;8.57;;;;;;;;;;4349662;32;317572;-82
2024/01/16 09:29:11;;;;;;;13.03;7.57;;;;;;;;;;4326082;32;415952;-82
2024/01/16 09:31:40;;;;;;;15.03;5.77;;;;;;;;;;4355821;32;316900;-82
2024/01/16 09:34:13;;;;;;;8.43;4.63;;;;;;;;;;4330003;32;346212;-82
2024/01/16 09:36:42;;;;;;;6.97;3.97;;;;;;;;;;4347126;32;316241;-81
2024/01/16 09:39:10;;;;;;;8.43;4.80;;;;;;;;;;4337171;32;314800;-82
2024/01/16 09:41:37;;;;;;;12.27;7.37;;;;;;;;;;4344293;32;315595;-82
2024/01/16 09:44:07;;;;;;;3.90;3.13;;;;;;;;;;4330795;32;317248;-81
2024/01/16 09:46:36;;;;;;;10.00;6.20;;;;;;;;;;4347557;32;315410;-82
2024/01/16 09:49:06;;;;;;;3.00;2.20;;;;;;;;;;4346332;32;317359;-83
2024/01/16 09:51:33;;;;;;;4.23;3.10;;;;;;;;;;4363793;32;315218;-81
2024/01/16 09:54:06;;;;;;;5.20;3.73;;;;;;;;;;4350043;32;316170;-82
2024/01/16 09:56:37;;;;;;;6.67;3.10;;;;;;;;;;4363980;32;316418;-82
2024/01/16 09:59:07;;;;;;;2.07;1.87;;;;;;;;;;4355592;32;317649;-82
2024/01/16 10:01:36;;;;;;;2.70;2.23;;;;;;;;;;4367682;32;315835;-81
2024/01/16 10:04:05;;;;;;;2.97;2.27;;;;;;;;;;4350953;32;315929;-80
2024/01/16 10:06:37;;;;;;;2.20;2.00;;;;;;;;;;4361137;32;315805;-82
2024/01/16 10:09:04;;;;;;;1.48;1.25;;;;;;;;;;4342005;32;345625;-83
2024/01/16 10:11:32;;;;;;;1.50;1.37;;;;;;;;;;4341968;32;315412;-82
2024/01/16 10:14:01;;;;;;;3.97;2.60;;;;;;;;;;4334957;32;314469;-80
2024/01/16 10:17:02;;;;;;;5.93;2.80;;;;;;;;;;4365062;32;316104;-83
2024/01/16 10:19:31;;;;;;;3.40;2.47;;;;;;;;;;4318786;32;415971;-81
2024/01/16 10:22:02;;;;;;;9.77;6.37;;;;;;;;;;4321233;32;316176;-81
2024/01/16 10:24:29;;;;;;;16.83;9.13;;;;;;;;;;4329305;32;316159;-80
2024/01/16 10:27:02;;;;;;;4.13;3.20;;;;;;;;;;4317650;32;317102;-80
2024/01/16 10:29:31;;;;;;;3.77;3.00;;;;;;;;;;4331742;33;316297;-82
2024/01/16 10:31:58;;;;;;;4.57;2.90;;;;;;;;;;4320664;33;316437;-82
2024/01/16 10:34:30;;;;;;;1.93;1.80;;;;;;;;;;4334203;33;315465;-83
2024/01/16 10:37:09;;;;;;;5.03;4.43;;;;;;;;;;4305736;33;315389;-83
2024/01/16 10:39:37;;;;;;;3.17;2.87;;;;;;;;;;4332654;32;316260;-81
2024/01/16 10:42:06;;;;;;;3.80;2.77;;;;;;;;;;4317117;32;337712;-83
2024/01/16 10:44:34;;;;;;;4.10;2.93;;;;;;;;;;4333061;32;315402;-83
2024/01/16 10:47:12;;;;;;;7.47;4.07;;;;;;;;;;4315050;32;315876;-82
2024/01/16 10:49:40;;;;;;;3.07;2.27;;;;;;;;;;4323658;32;327037;-80
2024/01/16 10:52:12;;;;;;;4.93;3.80;;;;;;;;;;4332932;33;315574;-82
2024/01/16 10:54:44;;;;;;;3.27;2.00;;;;;;;;;;4323460;32;342074;-79
2024/01/16 10:57:14;;;;;;;13.87;2.33;;;;;;;;;;4325474;32;316028;-81
2024/01/16 10:59:52;;;;;;;8.20;5.37;;;;;;;;;;4321577;32;317211;-83
2024/01/16 11:02:21;;;;;;;18.30;11.30;;;;;;;;;;4327696;32;316296;-81
2024/01/16 11:04:48;;;;;;;14.67;8.60;;;;;;;;;;4319003;32;318402;-82
2024/01/16 11:07:18;;;;;;;5.57;3.53;;;;;;;;;;4329840;32;315492;-82
2024/01/16 11:09:47;;;;;;;4.87;3.10;;;;;;;;;;4313390;32;316050;-83
2024/01/16 11:12:16;;;;;;;8.50;5.57;;;;;;;;;;4331061;32;315534;-84
2024/01/16 11:14:53;;;;;;;2.83;2.17;;;;;;;;;;4311711;32;388787;-82
2024/01/16 11:17:29;;;;;;;4.63;3.10;;;;;;;;;;4328872;32;315399;-83
2024/01/16 11:19:58;;;;;;;13.73;2.40;;;;;;;;;;4318694;32;338730;-82
2024/01/16 11:22:29;;;;;;;8.27;4.93;;;;;;;;;;4332528;32;316747;-83
2024/01/16 11:25:14;;;;;;;4.40;3.20;;;;;;;;;;4319544;32;316080;-84
2024/01/16 11:27:43;;;;;;;8.87;5.97;;;;;;;;;;4343818;32;316225;-83
2024/01/16 11:30:12;;;;;;;4.23;2.33;;;;;;;;;;4338412;32;315684;-84
2024/01/16 11:32:56;;;;;;;17.23;5.67;;;;;;;;;;4331946;33;314571;-85
2024/01/16 11:35:33;;;;;;;5.40;2.83;;;;;;;;;;4325481;32;405517;-82
2024/01/16 11:38:18;;;;;;;7.43;3.93;;;;;;;;;;4385731;32;315651;-82
2024/01/16 11:40:56;;;;;;;7.10;5.10;;;;;;;;;;4306918;32;316117;-82
2024/01/16 11:43:38;;;;;;;4.53;2.90;;;;;;;;;;4322164;32;314573;-82
2024/01/16 11:46:07;;;;;;;8.93;6.03;;;;;;;;;;4320963;32;416288;-83
2024/01/16 11:48:34;;;;;;;9.57;3.83;;;;;;;;;;4326470;32;315401;-83
2024/01/16 11:51:01;;;;;;;8.57;5.13;;;;;;;;;;4318325;32;316271;-82
2024/01/16 11:53:40;;;;;;;2.77;1.77;;;;;;;;;;4333213;32;314295;-84
2024/01/16 11:56:51;;;;;;;2.80;2.20;;;;;;;;;;4318990;32;415190;-83
2024/01/16 11:59:53;;;;;;;2.77;1.90;;;;;;;;;;4260808;32;416378;-84
2024/01/16 12:02:27;;;;;;;3.37;2.13;;;;;;;;;;4305857;32;416407;-83
2024/01/16 12:04:56;;;;;;;5.63;2.90;;;;;;;;;;4316985;32;314237;-83
2024/01/16 12:07:23;;;;;;;5.57;4.00;;;;;;;;;;4344152;32;315899;-81
2024/01/16 12:09:53;;;;;;;3.73;2.70;;;;;;;;;;4338264;32;314253;-82
2024/01/16 12:12:20;;;;;;;5.20;3.00;;;;;;;;;;4337590;32;316062;-83
2024/01/16 12:14:57;;;;;;;6.80;3.00;;;;;;;;;;4322866;32;316051;-82
2024/01/16 12:17:27;;;;;;;6.47;2.87;;;;;;;;;;4334494;32;315677;-82
2024/01/16 12:19:57;;;;;;;6.53;2.07;;;;;;;;;;4324588;32;331108;-83
2024/01/16 12:22:27;;;;;;;2.00;1.43;;;;;;;;;;4342936;32;314357;-82
2024/01/16 12:25:01;;;;;;;4.47;2.70;;;;;;;;;;4352460;32;315757;-82
2024/01/16 12:27:30;;;;;;;9.57;3.03;;;;;;;;;;4426649;32;315373;-82
2024/01/16 12:30:10;;;;;;;3.60;2.83;;;;;;;;;;4411181;32;315192;-83
2024/01/16 12:32:38;;;;;;;3.03;2.43;;;;;;;;;;4408883;32;314308;-82
2024/01/16 12:35:06;;;;;;;9.67;4.30;;;;;;;;;;4390997;32;415203;-82
2024/01/16 12:37:33;;;;;;;71.87;29.83;;;;;;;;;;4410157;32;314093;-82
2024/01/16 12:40:02;;;;;;;26.07;9.40;;;;;;;;;;4407745;32;316116;-82
2024/01/16 12:42:30;;;;;;;12.13;4.50;;;;;;;;;;4419287;32;316083;-82
2024/01/16 12:44:59;;;;;;;6.00;3.43;;;;;;;;;;4410315;32;315761;-81
2024/01/16 12:47:25;;;;;;;4.23;3.23;;;;;;;;;;4425975;32;314277;-81
2024/01/16 12:49:53;;;;;;;6.07;3.83;;;;;;;;;;4408079;32;314156;-83
2024/01/16 12:52:22;;;;;;;5.40;2.70;;;;;;;;;;4405231;32;336530;-83
2024/01/16 12:54:50;;;;;;;2.70;2.10;;;;;;;;;;4394606;32;315521;-82
2024/01/16 12:57:22;;;;;;;10.63;5.57;;;;;;;;;;4409030;32;315926;-83
2024/01/16 12:59:51;;;;;;;7.83;4.27;;;;;;;;;;4389189;32;316648;-82
2024/01/16 13:02:24;;;;;;;3.77;2.70;;;;;;;;;;4396839;32;315662;-82
2024/01/16 13:04:58;;;;;;;44.03;23.23;;;;;;;;;;4393738;32;316029;-82
2024/01/16 13:07:30;;;;;;;13.50;8.47;;;;;;;;;;4409353;32;317513;-83
2024/01/16 13:10:15;;;;;;;12.20;7.23;;;;;;;;;;4391141;32;316956;-83
2024/01/16 13:12:45;;;;;;;4.07;3.13;;;;;;;;;;4390726;32;317009;-82
2024/01/16 13:15:16;;;;;;;3.87;2.00;;;;;;;;;;4406068;32;315638;-84
2024/01/16 13:17:45;;;;;;;2.67;1.80;;;;;;;;;;4399758;32;315923;-82
2024/01/16 13:20:14;;;;;;;1.33;1.23;;;;;;;;;;4409828;32;322565;-83
2024/01/16 13:22:41;;;;;;;2.40;1.67;;;;;;;;;;4391235;32;316214;-83
2024/01/16 13:25:09;;;;;;;2.63;1.67;;;;;;;;;;4388034;32;315801;-82
2024/01/16 13:27:37;;;;;;;2.53;1.60;;;;;;;;;;4406022;32;316035;-83
2024/01/16 13:30:12;;;;;;;2.63;2.00;;;;;;;;;;4401609;32;316070;-82
2024/01/16 13:32:39;;;;;;;3.37;2.03;;;;;;;;;;4399285;32;316127;-82
2024/01/16 13:35:08;;;;;;;13.53;4.40;;;;;;;;;;4404206;32;316248;-83
2024/01/16 13:37:37;;;;;;;15.97;6.73;;;;;;;;;;4406494;32;317011;-83
2024/01/16 13:40:08;;;;;;;10.43;6.00;;;;;;;;;;4398999;32;415929;-83
2024/01/16 13:42:35;;;;;;;19.30;10.60;;;;;;;;;;4411017;32;317112;-84
2024/01/16 13:45:02;;;;;;;17.47;6.50;;;;;;;;;;4393597;32;317687;-82
2024/01/16 13:47:31;;;;;;;10.50;4.93;;;;;;;;;;4406428;32;316945;-85
2024/01/16 13:49:59;;;;;;;10.20;5.67;;;;;;;;;;4388219;32;317543;-82
2024/01/16 13:52:29;;;;;;;7.97;3.20;;;;;;;;;;4406860;32;317032;-81
2024/01/16 13:54:59;;;;;;;5.77;2.60;;;;;;;;;;4394240;32;315846;-82
2024/01/16 13:57:26;;;;;;;8.07;2.37;;;;;;;;;;4356888;32;315415;-83
2024/01/16 13:59:53;;;;;;;9.03;4.47;;;;;;;;;;4352808;32;315957;-82
2024/01/16 14:02:20;;;;;;;16.27;9.57;;;;;;;;;;4363001;32;315410;-83
2024/01/16 14:04:50;;;;;;;24.43;13.67;;;;;;;;;;4353833;32;321846;-85
2024/01/16 14:07:19;;;;;;;18.50;7.07;;;;;;;;;;4394480;32;317451;-83
2024/01/16 14:09:48;;;;;;;12.50;6.30;;;;;;;;;;4402108;32;317403;-83
2024/01/16 14:12:19;;;;;;;12.23;7.40;;;;;;;;;;4401926;32;317319;-83
2024/01/16 14:14:47;;;;;;;6.63;4.53;;;;;;;;;;4386114;32;317228;-83
2024/01/16 14:17:15;;;;;;;6.00;3.90;;;;;;;;;;4394986;32;315331;-83
2024/01/16 14:19:42;;;;;;;12.73;6.60;;;;;;;;;;4385401;32;316916;-83
2024/01/16 14:22:12;;;;;;;9.87;6.40;;;;;;;;;;4396598;32;316802;-82
2024/01/16 14:24:39;;;;;;;19.17;9.53;;;;;;;;;;4395308;32;316075;-83
2024/01/16 14:27:06;;;;;;;23.40;13.67;;;;;;;;;;4373465;32;416602;-83
2024/01/16 14:29:36;;;;;;;23.07;15.20;;;;;;;;;;4399696;32;316549;-84
2024/01/16 14:32:04;;;;;;;31.00;15.47;;;;;;;;;;4403264;32;317553;-83
2024/01/16 14:34:32;;;;;;;27.20;9.10;;;;;;;;;;4406320;32;316470;-84
2024/01/16 14:36:59;;;;;;;9.53;5.60;;;;;;;;;;4395879;32;325347;-83